Time;durP1;ratioP1;P1;durP2;ratioP2;P2;SDS_P1;SDS_P2;PMS_P1;PMS_P2;Temp;Humidity;BMP_temperature;BMP_pressure;BME280_temperature;BME280_humidity;BME280_pressure;Samples;Min_cycle;Max_cycle;Signal;HPM_P1;HPM_P2
2022/10/12 00:00:38;;;;;;;20.50;15.00;;;14.50;99.90;;;;;;5042902;28;21013;-63
2022/10/12 00:03:04;;;;;;;22.73;14.13;;;14.20;99.90;;;;;;5045045;28;20182;-65
2022/10/12 00:05:30;;;;;;;17.60;14.60;;;14.30;99.90;;;;;;5045550;28;20208;-63
2022/10/12 00:07:55;;;;;;;17.53;14.47;;;14.10;99.90;;;;;;5037275;28;20223;-65
2022/10/12 00:10:21;;;;;;;15.83;13.47;;;14.20;99.90;;;;;;5044587;28;20580;-63
2022/10/12 00:12:46;;;;;;;17.20;14.63;;;14.00;99.90;;;;;;5041405;28;20189;-63
2022/10/12 00:15:12;;;;;;;19.33;15.17;;;14.10;99.90;;;;;;5038918;28;20178;-63
2022/10/12 00:17:37;;;;;;;17.90;13.70;;;14.20;99.90;;;;;;5036194;28;20189;-63
2022/10/12 00:20:04;;;;;;;18.60;13.87;;;14.10;99.90;;;;;;5044604;28;20178;-63
2022/10/12 00:22:30;;;;;;;15.05;12.45;;;14.00;99.90;;;;;;5038173;28;20293;-64
2022/10/12 00:24:55;;;;;;;19.35;14.23;;;14.40;99.90;;;;;;5032062;28;20261;-63
2022/10/12 00:27:21;;;;;;;20.33;14.77;;;14.10;99.90;;;;;;5033653;28;20604;-63
2022/10/12 00:29:47;;;;;;;16.07;13.50;;;13.90;99.90;;;;;;5047961;28;20663;-63
2022/10/12 00:32:14;;;;;;;16.30;14.57;;;13.70;99.90;;;;;;5037739;28;20622;-63
2022/10/12 00:34:39;;;;;;;19.13;15.75;;;13.90;99.90;;;;;;5042431;28;20257;-63
2022/10/12 00:37:05;;;;;;;17.53;15.10;;;13.70;99.90;;;;;;5035969;28;20292;-65
2022/10/12 00:39:30;;;;;;;18.77;15.20;;;13.70;99.90;;;;;;5041125;28;20738;-65
2022/10/12 00:41:56;;;;;;;17.23;14.93;;;13.70;99.90;;;;;;5034980;28;20193;-64
2022/10/12 00:44:42;;;;;;;20.70;14.70;;;13.40;99.90;;;;;;5040255;28;20178;-65
2022/10/12 00:47:26;;;;;;;23.42;15.35;;;13.50;99.90;;;;;;5030449;28;20642;-65
2022/10/12 00:50:21;;;;;;;16.38;14.63;;;13.50;99.90;;;;;;5042575;28;20182;-64
2022/10/12 00:53:07;;;;;;;19.58;16.15;;;13.90;99.90;;;;;;5022810;28;20190;-66
2022/10/12 00:55:38;;;;;;;19.25;14.45;;;13.60;99.90;;;;;;5038839;28;20300;-65
2022/10/12 00:58:07;;;;;;;22.95;16.23;;;13.70;99.90;;;;;;5030855;28;20188;-65
2022/10/12 01:00:34;;;;;;;20.50;15.68;;;13.80;99.90;;;;;;5037800;28;20657;-66
2022/10/12 01:03:00;;;;;;;19.63;14.80;;;13.90;99.90;;;;;;5044057;28;20189;-64
2022/10/12 01:05:26;;;;;;;18.38;14.85;;;13.90;99.90;;;;;;5040961;28;20779;-65
2022/10/12 01:07:52;;;;;;;18.27;15.10;;;13.90;99.90;;;;;;5034059;28;20249;-63
2022/10/12 01:10:17;;;;;;;16.63;13.03;;;13.80;99.90;;;;;;5036406;28;20186;-64
2022/10/12 01:12:45;;;;;;;20.40;14.70;;;13.60;99.90;;;;;;5043971;28;20182;-63
2022/10/12 01:15:12;;;;;;;18.50;14.50;;;13.70;99.90;;;;;;5037109;28;20173;-63
2022/10/12 01:17:53;;;;;;;18.17;15.27;;;13.60;99.90;;;;;;5040371;28;20174;-63
2022/10/12 01:20:22;;;;;;;18.40;14.38;;;13.50;99.90;;;;;;5037692;28;20190;-64
2022/10/12 01:23:17;;;;;;;17.73;14.30;;;13.50;99.90;;;;;;5032932;28;20663;-63
2022/10/12 01:26:02;;;;;;;15.35;13.30;;;13.80;99.90;;;;;;5038512;28;20237;-63
2022/10/12 01:28:58;;;;;;;18.92;14.65;;;13.70;99.90;;;;;;5039593;28;20216;-64
2022/10/12 01:31:32;;;;;;;18.83;16.38;;;13.40;99.90;;;;;;5034849;28;20175;-64
2022/10/12 01:34:20;;;;;;;21.15;15.68;;;13.30;99.90;;;;;;5044779;28;20776;-64
2022/10/12 01:36:53;;;;;;;18.48;15.60;;;13.10;99.90;;;;;;5028821;28;20218;-64
2022/10/12 01:39:29;;;;;;;20.95;15.77;;;13.40;99.90;;;;;;5041148;28;20185;-63
2022/10/12 01:41:59;;;;;;;18.33;15.10;;;13.10;99.90;;;;;;5036864;28;20190;-63
2022/10/12 01:44:26;;;;;;;21.98;16.30;;;13.30;99.90;;;;;;5044809;28;20324;-64
2022/10/12 01:46:54;;;;;;;19.85;15.32;;;13.00;99.90;;;;;;5034466;28;20207;-64
2022/10/12 01:49:25;;;;;;;20.75;16.58;;;13.00;99.90;;;;;;5038129;28;20204;-64
2022/10/12 01:52:10;;;;;;;20.92;17.08;;;13.10;99.90;;;;;;5030764;28;20187;-63
2022/10/12 01:55:15;;;;;;;18.88;15.30;;;13.10;99.90;;;;;;5040502;28;20663;-64
2022/10/12 01:57:43;;;;;;;19.00;15.27;;;13.00;99.90;;;;;;5036496;28;20253;-64
2022/10/12 02:00:10;;;;;;;18.13;14.70;;;13.10;99.90;;;;;;5035708;28;20244;-63
2022/10/12 02:03:11;;;;;;;20.08;15.15;;;13.40;99.90;;;;;;5043818;28;20280;-63
2022/10/12 02:05:48;;;;;;;21.83;15.77;;;13.20;99.90;;;;;;5020884;28;20217;-63
2022/10/12 02:08:23;;;;;;;22.08;16.02;;;13.00;99.90;;;;;;5033489;28;20319;-63
2022/10/12 02:10:59;;;;;;;17.67;14.73;;;12.80;99.90;;;;;;5040647;28;20224;-63
2022/10/12 02:13:29;;;;;;;17.23;15.48;;;13.00;99.90;;;;;;5032621;28;20182;-63
2022/10/12 02:15:57;;;;;;;23.85;16.27;;;12.90;99.90;;;;;;5036011;28;20198;-63
2022/10/12 02:18:23;;;;;;;21.48;15.15;;;13.00;99.90;;;;;;5037206;28;20178;-64
2022/10/12 02:20:52;;;;;;;21.77;15.25;;;12.60;99.90;;;;;;5040193;28;20709;-63
2022/10/12 02:23:20;;;;;;;19.15;14.88;;;13.00;99.90;;;;;;5042045;28;20185;-63
2022/10/12 02:25:46;;;;;;;20.48;16.15;;;12.50;99.90;;;;;;5041492;28;20210;-63
2022/10/12 02:28:17;;;;;;;16.50;14.47;;;12.60;99.90;;;;;;5040853;28;20781;-63
2022/10/12 02:31:09;;;;;;;19.00;14.65;;;12.70;99.90;;;;;;5038862;28;20444;-63
2022/10/12 02:33:43;;;;;;;20.30;14.65;;;12.70;99.90;;;;;;5035987;28;20186;-62
2022/10/12 02:36:12;;;;;;;18.45;15.32;;;12.80;99.90;;;;;;5036794;28;20205;-64
2022/10/12 02:38:47;;;;;;;18.58;15.30;;;12.80;99.90;;;;;;5035769;28;20183;-63
2022/10/12 02:41:24;;;;;;;17.98;13.93;;;12.80;99.90;;;;;;5043118;28;20254;-63
2022/10/12 02:43:55;;;;;;;20.98;16.13;;;12.60;99.90;;;;;;5034476;28;20187;-62
2022/10/12 02:46:24;;;;;;;18.60;15.00;;;12.40;99.90;;;;;;5038925;28;20200;-63
2022/10/12 02:48:51;;;;;;;20.05;15.80;;;12.40;99.90;;;;;;5034769;28;20222;-62
2022/10/12 02:51:17;;;;;;;21.83;14.63;;;12.50;99.90;;;;;;5036144;28;20210;-64
2022/10/12 02:53:44;;;;;;;16.65;14.30;;;12.40;99.90;;;;;;5038906;28;20182;-65
2022/10/12 02:56:12;;;;;;;17.23;14.20;;;12.50;99.90;;;;;;5037275;28;20749;-63
2022/10/12 02:58:38;;;;;;;19.02;15.18;;;12.60;99.90;;;;;;5033856;28;20255;-62
2022/10/12 03:01:04;;;;;;;17.40;13.93;;;12.40;99.90;;;;;;5037983;28;20655;-62
2022/10/12 03:03:29;;;;;;;16.77;14.00;;;12.60;99.90;;;;;;5033857;28;20519;-63
2022/10/12 03:05:55;;;;;;;15.83;12.67;;;12.80;99.90;;;;;;5035530;28;21418;-65
2022/10/12 03:08:21;;;;;;;13.83;12.40;;;12.70;99.90;;;;;;5025837;28;20210;-64
2022/10/12 03:10:46;;;;;;;18.17;11.93;;;12.60;99.90;;;;;;5029373;28;20671;-64
2022/10/12 03:13:12;;;;;;;15.73;12.00;;;12.60;99.90;;;;;;5027090;28;20182;-65
2022/10/12 03:15:37;;;;;;;14.20;12.80;;;13.00;99.90;;;;;;5039262;28;20679;-66
2022/10/12 03:18:03;;;;;;;12.87;11.33;;;12.70;99.90;;;;;;5041892;28;20633;-64
2022/10/12 03:20:29;;;;;;;13.70;12.30;;;12.80;99.90;;;;;;5039077;28;20186;-65
2022/10/12 03:22:54;;;;;;;14.17;12.73;;;12.80;99.90;;;;;;5035273;28;20444;-65
2022/10/12 03:25:20;;;;;;;21.93;14.00;;;12.80;99.90;;;;;;5022751;28;20506;-66
2022/10/12 03:27:45;;;;;;;14.23;11.30;;;12.90;99.90;;;;;;5036430;28;20237;-65
2022/10/12 03:30:11;;;;;;;14.30;11.83;;;13.00;99.90;;;;;;5034789;28;20189;-65
2022/10/12 03:32:38;;;;;;;14.48;12.15;;;13.20;99.90;;;;;;5035160;28;20716;-65
2022/10/12 03:35:05;;;;;;;18.17;11.75;;;13.20;99.90;;;;;;5041723;28;20276;-65
2022/10/12 03:37:30;;;;;;;12.82;11.55;;;13.20;99.90;;;;;;5036659;28;20202;-64
2022/10/12 03:39:56;;;;;;;14.33;12.70;;;12.90;99.90;;;;;;5039313;28;20194;-65
2022/10/12 03:42:21;;;;;;;13.70;12.30;;;13.00;99.90;;;;;;5039268;28;20194;-64
2022/10/12 03:44:47;;;;;;;15.40;13.07;;;12.80;99.90;;;;;;5034391;28;20179;-65
2022/10/12 03:47:12;;;;;;;13.40;12.10;;;12.90;99.90;;;;;;5041380;28;20280;-64
2022/10/12 03:49:38;;;;;;;17.13;12.93;;;13.00;99.90;;;;;;5035475;28;20256;-65
2022/10/12 03:52:04;;;;;;;14.50;12.50;;;12.80;99.90;;;;;;5040952;28;20843;-66
2022/10/12 03:54:29;;;;;;;15.23;12.93;;;13.00;99.90;;;;;;5037721;28;20213;-64
2022/10/12 03:56:55;;;;;;;14.57;12.20;;;12.90;99.90;;;;;;5031640;28;20199;-65
2022/10/12 03:59:21;;;;;;;15.73;12.60;;;12.80;99.90;;;;;;5039207;28;20227;-65
2022/10/12 04:01:46;;;;;;;16.67;14.10;;;12.90;99.90;;;;;;5036745;28;20197;-66
2022/10/12 04:04:12;;;;;;;16.30;13.27;;;13.00;99.90;;;;;;5037274;28;20201;-66
2022/10/12 04:06:38;;;;;;;17.00;13.50;;;13.20;99.90;;;;;;5031198;28;20209;-65
2022/10/12 04:09:03;;;;;;;18.60;12.70;;;13.20;99.90;;;;;;5040189;28;20182;-64
2022/10/12 04:11:29;;;;;;;14.43;12.80;;;12.90;99.90;;;;;;5032050;28;20193;-66
2022/10/12 04:13:54;;;;;;;14.67;13.07;;;13.10;99.90;;;;;;5032552;28;20198;-65
2022/10/12 04:16:20;;;;;;;14.97;13.10;;;12.90;99.90;;;;;;5034526;28;20224;-65
2022/10/12 04:18:46;;;;;;;17.02;14.35;;;12.90;99.90;;;;;;5035833;28;20174;-65
2022/10/12 04:21:14;;;;;;;15.70;13.83;;;12.70;99.90;;;;;;5027874;28;20572;-65
2022/10/12 04:23:41;;;;;;;14.27;12.77;;;12.70;99.90;;;;;;5024449;28;20265;-66
2022/10/12 04:26:07;;;;;;;14.90;13.38;;;13.00;99.90;;;;;;5026455;28;20252;-65
2022/10/12 04:28:32;;;;;;;16.23;12.70;;;13.20;99.90;;;;;;5030363;28;20218;-65
2022/10/12 04:30:58;;;;;;;17.43;12.87;;;13.60;99.90;;;;;;5030881;28;20371;-65
2022/10/12 04:33:24;;;;;;;13.90;12.40;;;13.40;99.90;;;;;;5028836;28;20223;-66
2022/10/12 04:35:49;;;;;;;14.97;13.50;;;13.10;99.90;;;;;;5027324;28;20206;-65
2022/10/12 04:38:15;;;;;;;14.33;12.83;;;13.20;99.90;;;;;;5034982;28;20190;-65
2022/10/12 04:40:45;;;;;;;16.30;13.60;;;13.10;99.90;;;;;;5032439;28;20269;-65
2022/10/12 04:43:11;;;;;;;14.73;13.10;;;13.30;99.90;;;;;;5029332;28;20183;-65
2022/10/12 04:45:36;;;;;;;15.93;14.23;;;13.60;99.90;;;;;;5031552;28;20236;-66
2022/10/12 04:48:02;;;;;;;16.80;15.00;;;13.30;99.90;;;;;;5030452;28;20298;-66
2022/10/12 04:50:27;;;;;;;16.37;14.60;;;13.50;99.90;;;;;;5029898;28;20182;-66
2022/10/12 04:52:53;;;;;;;13.97;12.47;;;13.40;99.90;;;;;;5030822;28;20540;-67
2022/10/12 04:55:19;;;;;;;16.10;13.50;;;13.40;99.90;;;;;;5031998;28;20285;-65
2022/10/12 04:57:44;;;;;;;15.90;13.30;;;13.20;99.90;;;;;;5027512;28;20194;-66
2022/10/12 05:00:10;;;;;;;15.23;13.60;;;13.60;99.90;;;;;;5028591;28;20190;-66
2022/10/12 05:02:36;;;;;;;15.90;13.88;;;13.40;99.90;;;;;;5025409;28;20217;-66
2022/10/12 05:05:01;;;;;;;14.50;13.00;;;13.40;99.90;;;;;;5030347;28;20209;-65
2022/10/12 05:07:27;;;;;;;15.47;13.03;;;13.60;99.90;;;;;;5029698;28;20283;-66
2022/10/12 05:09:52;;;;;;;15.77;12.70;;;13.50;99.90;;;;;;5034907;28;20587;-66
2022/10/12 05:12:18;;;;;;;19.57;14.33;;;13.50;99.90;;;;;;5030747;28;20242;-65
2022/10/12 05:14:44;;;;;;;17.13;14.37;;;13.90;99.90;;;;;;5028732;28;20202;-67
2022/10/12 05:17:10;;;;;;;15.97;14.27;;;13.60;99.90;;;;;;5027192;28;20609;-66
2022/10/12 05:19:35;;;;;;;16.93;14.90;;;13.70;99.90;;;;;;5026305;28;20468;-65
2022/10/12 05:22:01;;;;;;;16.67;14.27;;;13.70;99.90;;;;;;5026023;28;20457;-65
2022/10/12 05:24:27;;;;;;;20.00;13.47;;;13.80;99.90;;;;;;5028354;28;20660;-66
2022/10/12 05:26:53;;;;;;;15.20;13.63;;;13.80;99.90;;;;;;5028661;28;20252;-65
2022/10/12 05:29:18;;;;;;;17.40;13.93;;;13.80;99.90;;;;;;5029376;28;20209;-66
2022/10/12 05:31:44;;;;;;;16.53;13.50;;;13.60;99.90;;;;;;5032471;28;20247;-66
2022/10/12 05:34:09;;;;;;;16.83;13.83;;;13.80;99.90;;;;;;5035779;28;20718;-66
2022/10/12 05:36:35;;;;;;;15.83;14.20;;;13.60;99.90;;;;;;5024001;28;20280;-70
2022/10/12 05:39:01;;;;;;;14.93;13.37;;;13.80;99.90;;;;;;5024989;28;20194;-72
2022/10/12 05:41:26;;;;;;;17.00;15.23;;;13.60;99.90;;;;;;5024068;28;20186;-69
2022/10/12 05:43:52;;;;;;;19.20;14.70;;;13.70;99.90;;;;;;5029759;28;20189;-69
2022/10/12 05:46:18;;;;;;;19.93;14.73;;;13.80;99.90;;;;;;5020218;28;20214;-69
2022/10/12 05:48:43;;;;;;;25.23;15.07;;;13.70;99.90;;;;;;5021119;28;20518;-67
2022/10/12 05:51:09;;;;;;;21.10;15.20;;;13.50;99.90;;;;;;5028955;28;20607;-69
2022/10/12 05:53:35;;;;;;;16.60;14.87;;;13.70;99.90;;;;;;5029405;28;20220;-72
2022/10/12 05:56:00;;;;;;;16.83;14.57;;;13.60;99.90;;;;;;5031554;28;20226;-75
2022/10/12 05:58:28;;;;;;;21.63;15.07;;;13.60;99.90;;;;;;5035620;28;20268;-68
2022/10/12 06:01:02;;;;;;;17.35;14.40;;;13.80;99.90;;;;;;5030756;28;20224;-68
2022/10/12 06:03:27;;;;;;;18.60;16.20;;;13.60;99.90;;;;;;5026855;28;20293;-70
2022/10/12 06:05:53;;;;;;;18.00;15.37;;;13.80;99.90;;;;;;5027690;28;20210;-69
2022/10/12 06:08:18;;;;;;;19.10;15.17;;;14.10;99.90;;;;;;5024996;28;20215;-66
2022/10/12 06:10:46;;;;;;;15.90;14.10;;;13.80;99.90;;;;;;5022456;28;20189;-71
2022/10/12 06:13:12;;;;;;;16.63;13.63;;;13.70;99.90;;;;;;5024809;28;20210;-67
2022/10/12 06:15:37;;;;;;;19.07;14.93;;;13.80;99.90;;;;;;5024285;28;20194;-70
2022/10/12 06:18:03;;;;;;;20.83;15.13;;;13.70;99.90;;;;;;5025089;28;20441;-68
2022/10/12 06:20:28;;;;;;;17.97;14.60;;;13.80;99.90;;;;;;5024743;28;20719;-68
2022/10/12 06:22:54;;;;;;;17.57;14.33;;;13.90;99.90;;;;;;5023478;28;20201;-67
2022/10/12 06:25:19;;;;;;;20.37;15.57;;;14.00;99.90;;;;;;5030037;28;20190;-67
2022/10/12 06:27:45;;;;;;;16.07;14.10;;;13.90;99.90;;;;;;5020111;28;20723;-67
2022/10/12 06:30:12;;;;;;;20.43;14.43;;;14.10;99.90;;;;;;5023072;28;20576;-67
2022/10/12 06:32:38;;;;;;;18.23;15.63;;;14.40;99.90;;;;;;5025194;28;20232;-69
2022/10/12 06:35:04;;;;;;;16.87;15.07;;;13.90;99.90;;;;;;5023138;28;20650;-66
2022/10/12 06:37:30;;;;;;;20.17;15.70;;;14.00;99.90;;;;;;5024081;28;20213;-68
2022/10/12 06:39:56;;;;;;;19.53;16.97;;;14.30;99.90;;;;;;5023784;28;20639;-70
2022/10/12 06:42:22;;;;;;;19.85;15.90;;;14.20;99.90;;;;;;5027921;28;20182;-69
2022/10/12 06:44:47;;;;;;;19.20;16.60;;;14.20;99.90;;;;;;5025603;28;20252;-71
2022/10/12 06:47:13;;;;;;;18.77;16.50;;;14.30;99.90;;;;;;5021663;28;20216;-63
2022/10/12 06:49:38;;;;;;;22.13;17.13;;;14.40;99.90;;;;;;5022840;28;20208;-66
2022/10/12 06:52:04;;;;;;;19.10;16.50;;;14.30;99.90;;;;;;5028551;28;20178;-74
2022/10/12 06:54:30;;;;;;;28.13;18.70;;;14.40;99.90;;;;;;5026994;28;20184;-72
2022/10/12 06:56:55;;;;;;;22.60;17.57;;;14.50;99.90;;;;;;5024158;28;20735;-74
2022/10/12 06:59:21;;;;;;;23.50;18.23;;;14.20;99.90;;;;;;5029488;28;20175;-71
2022/10/12 07:01:48;;;;;;;24.08;19.20;;;14.20;99.90;;;;;;5026089;28;20595;-78
2022/10/12 07:04:14;;;;;;;24.08;19.00;;;14.30;99.90;;;;;;5026603;28;20182;-76
2022/10/12 07:06:40;;;;;;;28.37;19.10;;;14.30;99.90;;;;;;5024067;28;20345;-74
2022/10/12 07:09:06;;;;;;;25.57;17.40;;;14.30;99.90;;;;;;5029761;28;20492;-71
2022/10/12 07:11:31;;;;;;;28.93;18.80;;;14.50;99.90;;;;;;5025355;28;20215;-79
2022/10/12 07:13:57;;;;;;;25.70;19.37;;;14.50;99.90;;;;;;5026846;28;20274;-72
2022/10/12 07:16:23;;;;;;;22.87;18.67;;;14.20;99.90;;;;;;5030545;28;20210;-72
2022/10/12 07:18:49;;;;;;;26.20;20.00;;;14.40;99.90;;;;;;5030731;28;20435;-72
2022/10/12 07:21:15;;;;;;;26.35;20.33;;;14.40;99.90;;;;;;5025411;28;20277;-74
2022/10/12 07:23:40;;;;;;;27.03;19.43;;;14.10;99.90;;;;;;5034917;28;20277;-75
2022/10/12 07:26:07;;;;;;;24.90;19.20;;;14.40;99.90;;;;;;5029322;28;20464;-76
2022/10/12 07:28:34;;;;;;;23.77;17.88;;;14.70;99.90;;;;;;5033832;28;20209;-73
2022/10/12 07:31:05;;;;;;;26.73;19.55;;;14.50;99.90;;;;;;5030615;28;20186;-77
2022/10/12 07:33:34;;;;;;;28.23;20.23;;;14.50;99.90;;;;;;5029255;28;20178;-78
2022/10/12 07:36:01;;;;;;;28.52;21.10;;;14.50;99.90;;;;;;5017835;28;20240;-70
2022/10/12 07:38:27;;;;;;;25.85;20.42;;;14.60;99.90;;;;;;5024657;28;20209;-72
2022/10/12 07:40:53;;;;;;;22.17;18.53;;;15.00;99.90;;;;;;5026772;28;20263;-70
2022/10/12 07:43:18;;;;;;;25.90;20.17;;;14.90;99.90;;;;;;5023801;28;20508;-71
2022/10/12 07:45:44;;;;;;;31.50;20.10;;;15.00;99.90;;;;;;5022174;28;20456;-69
2022/10/12 07:48:10;;;;;;;27.77;20.80;;;15.20;99.90;;;;;;5038317;28;20210;-71
2022/10/12 07:50:37;;;;;;;22.65;18.50;;;15.10;99.90;;;;;;5025766;28;20531;-71
2022/10/12 07:53:03;;;;;;;24.13;18.92;;;15.40;99.90;;;;;;5030499;28;20179;-72
2022/10/12 07:55:31;;;;;;;24.00;18.70;;;15.50;99.90;;;;;;5027028;28;20698;-72
2022/10/12 07:57:58;;;;;;;22.50;18.33;;;15.80;99.90;;;;;;5026023;28;20613;-73
2022/10/12 08:00:24;;;;;;;23.38;17.40;;;15.90;99.90;;;;;;5037978;28;20196;-76
2022/10/12 08:02:50;;;;;;;27.17;19.47;;;15.80;99.90;;;;;;5032455;28;20190;-76
2022/10/12 08:05:16;;;;;;;21.63;17.67;;;16.20;99.90;;;;;;5023315;28;20441;-76
2022/10/12 08:07:42;;;;;;;22.55;18.55;;;16.20;99.90;;;;;;5028606;28;20220;-80
2022/10/12 08:10:08;;;;;;;22.93;18.30;;;16.20;99.90;;;;;;5026827;28;20269;-75
2022/10/12 08:12:33;;;;;;;21.60;18.50;;;16.30;99.90;;;;;;5026120;28;20655;-72
2022/10/12 08:14:59;;;;;;;25.60;18.40;;;16.10;99.90;;;;;;5028290;28;20186;-75
2022/10/12 08:17:25;;;;;;;22.87;18.20;;;16.30;99.90;;;;;;5022523;28;20202;-72
2022/10/12 08:19:50;;;;;;;25.38;19.90;;;16.80;99.90;;;;;;5032570;28;20190;-60
2022/10/12 08:22:16;;;;;;;22.20;17.97;;;16.90;99.90;;;;;;5037860;28;20660;-61
2022/10/12 08:24:42;;;;;;;23.63;17.80;;;16.40;99.90;;;;;;5031508;28;20549;-73
2022/10/12 08:27:08;;;;;;;23.17;19.33;;;16.50;99.90;;;;;;5024722;28;20257;-72
2022/10/12 08:29:33;;;;;;;24.40;19.00;;;16.60;99.90;;;;;;5027054;28;20182;-71
2022/10/12 08:32:00;;;;;;;20.83;17.00;;;16.60;99.90;;;;;;5034364;28;20656;-75
2022/10/12 08:34:26;;;;;;;28.80;19.75;;;17.10;99.90;;;;;;5031623;28;20182;-70
2022/10/12 08:36:52;;;;;;;21.00;18.73;;;17.20;99.90;;;;;;5033542;28;20755;-77
2022/10/12 08:39:17;;;;;;;19.90;17.60;;;16.90;99.90;;;;;;5029164;28;20182;-73
2022/10/12 08:42:18;;;;;;;19.73;16.60;;;17.00;99.90;;;;;;5028595;28;20179;-72
2022/10/12 08:44:58;;;;;;;17.35;15.43;;;17.50;99.90;;;;;;5031971;28;20187;-73
2022/10/12 08:47:37;;;;;;;19.80;16.85;;;17.60;99.90;;;;;;5026968;28;20677;-80
2022/10/12 08:50:05;;;;;;;18.88;16.45;;;17.90;99.90;;;;;;5041140;28;20274;-81
2022/10/12 08:52:37;;;;;;;22.23;16.13;;;17.90;99.90;;;;;;5029943;28;20297;-77
2022/10/12 08:55:31;;;;;;;18.27;14.80;;;18.00;99.90;;;;;;5032890;28;20554;-74
2022/10/12 08:57:57;;;;;;;17.13;14.93;;;18.20;99.90;;;;;;5024401;28;20191;-73
2022/10/12 09:00:23;;;;;;;20.23;17.07;;;18.30;99.90;;;;;;5030284;28;20264;-72
2022/10/12 09:03:18;;;;;;;17.92;14.73;;;18.30;99.90;;;;;;5024324;28;20201;-74
2022/10/12 09:05:58;;;;;;;19.10;14.70;;;18.30;99.90;;;;;;5034035;28;20209;-71
2022/10/12 09:08:41;;;;;;;17.30;13.90;;;18.30;99.90;;;;;;5027408;28;20301;-66
2022/10/12 09:11:32;;;;;;;13.52;11.95;;;18.30;99.90;;;;;;5027695;28;20269;-69
2022/10/12 09:14:07;;;;;;;16.77;13.70;;;18.30;99.90;;;;;;5030665;28;20182;-76
2022/10/12 09:16:38;;;;;;;15.30;13.25;;;18.20;99.90;;;;;;5030023;28;20209;-76
2022/10/12 09:19:12;;;;;;;15.95;13.10;;;18.20;99.90;;;;;;5033217;28;20242;-78
2022/10/12 09:21:40;;;;;;;15.10;11.65;;;18.30;99.90;;;;;;5025899;28;20195;-76
2022/10/12 09:24:20;;;;;;;14.07;11.77;;;18.20;99.90;;;;;;5034028;28;20269;-80
2022/10/12 09:26:50;;;;;;;16.65;11.90;;;18.30;99.90;;;;;;5033148;28;20209;-75
2022/10/12 09:29:21;;;;;;;14.95;11.75;;;18.30;99.90;;;;;;5031298;28;20261;-73
2022/10/12 09:32:11;;;;;;;15.38;13.07;;;18.20;99.90;;;;;;5031100;28;20182;-72
2022/10/12 09:34:37;;;;;;;13.20;11.50;;;18.10;99.90;;;;;;5024102;28;20231;-71
2022/10/12 09:37:04;;;;;;;14.90;11.67;;;18.00;99.90;;;;;;5028797;28;20198;-70
2022/10/12 09:39:34;;;;;;;16.13;10.60;;;18.10;99.90;;;;;;5034749;28;20193;-61
2022/10/12 09:42:01;;;;;;;15.32;11.70;;;18.10;99.90;;;;;;5027472;28;20186;-62
2022/10/12 09:45:22;;;;;;;14.55;11.60;;;18.10;99.90;;;;;;5024862;28;20171;-61
2022/10/12 09:48:21;;;;;;;19.08;11.55;;;18.00;99.90;;;;;;4980616;28;20320;-62
2022/10/12 09:51:00;;;;;;;12.45;10.50;;;17.90;99.90;;;;;;4991676;28;20205;-62
2022/10/12 09:53:30;;;;;;;13.90;10.73;;;17.80;99.90;;;;;;5022407;28;20283;-62
2022/10/12 09:56:20;;;;;;;12.68;10.05;;;18.00;99.90;;;;;;5026031;28;20230;-69
2022/10/12 09:59:16;;;;;;;12.77;10.50;;;17.90;99.90;;;;;;5030344;28;20192;-69
2022/10/12 10:02:15;;;;;;;12.70;10.90;;;17.60;99.90;;;;;;5028681;28;20221;-69
2022/10/12 10:04:43;;;;;;;15.23;11.90;;;17.60;99.90;;;;;;5024148;28;20230;-72
2022/10/12 10:07:25;;;;;;;15.90;11.30;;;17.60;99.90;;;;;;5030130;28;20212;-73
2022/10/12 10:10:16;;;;;;;13.82;9.95;;;17.60;99.90;;;;;;5024772;28;20182;-74
2022/10/12 10:12:49;;;;;;;12.75;9.18;;;17.90;99.90;;;;;;5025007;28;20615;-62
2022/10/12 10:15:27;;;;;;;14.02;10.75;;;17.60;99.90;;;;;;5029678;28;20182;-71
2022/10/12 10:18:06;;;;;;;12.93;10.27;;;18.00;99.90;;;;;;5027423;28;20289;-71
2022/10/12 10:20:34;;;;;;;15.85;10.45;;;17.90;99.90;;;;;;5027046;28;20689;-71
2022/10/12 10:23:02;;;;;;;11.32;10.13;;;17.80;99.90;;;;;;5025296;28;20602;-61
2022/10/12 10:25:28;;;;;;;11.43;10.30;;;17.70;99.90;;;;;;5023677;28;20251;-71
2022/10/12 10:28:21;;;;;;;14.90;11.10;;;18.10;99.90;;;;;;5027991;28;20297;-70
2022/10/12 10:31:26;;;;;;;12.77;10.48;;;17.90;99.90;;;;;;5030990;28;20193;-67
2022/10/12 10:34:07;;;;;;;12.88;10.13;;;17.90;99.90;;;;;;5029313;28;20257;-67
2022/10/12 10:36:36;;;;;;;16.65;12.10;;;17.80;99.90;;;;;;5027055;28;20202;-70
2022/10/12 10:39:06;;;;;;;11.38;10.18;;;17.70;99.90;;;;;;5024451;28;20183;-70
2022/10/12 10:41:36;;;;;;;13.90;9.10;;;17.90;99.90;;;;;;5020521;28;20193;-69
2022/10/12 10:44:04;;;;;;;11.68;10.10;;;18.10;99.90;;;;;;5031747;28;20557;-74
2022/10/12 10:46:33;;;;;;;10.27;9.10;;;18.20;99.90;;;;;;5029973;28;20218;-75
2022/10/12 10:49:05;;;;;;;11.13;9.93;;;18.30;99.90;;;;;;5029060;28;20228;-74
2022/10/12 10:51:47;;;;;;;14.43;11.02;;;18.20;99.90;;;;;;5028804;28;20702;-80
2022/10/12 10:54:26;;;;;;;11.27;9.20;;;18.90;99.90;;;;;;5034150;28;20178;-73
2022/10/12 10:57:12;;;;;;;12.45;9.90;;;18.50;99.90;;;;;;5027559;28;20251;-76
2022/10/12 10:59:41;;;;;;;10.85;9.25;;;18.60;99.90;;;;;;5036513;28;20601;-78
2022/10/12 11:02:27;;;;;;;12.73;10.20;;;18.40;99.90;;;;;;5029950;28;20178;-73
2022/10/12 11:05:04;;;;;;;12.38;9.75;;;18.40;99.90;;;;;;5027198;28;20631;-77
2022/10/12 11:07:37;;;;;;;15.18;9.85;;;18.50;99.90;;;;;;5024631;28;20233;-74
2022/10/12 11:10:16;;;;;;;14.70;10.60;;;19.10;99.90;;;;;;5027654;28;20186;-74
2022/10/12 11:12:45;;;;;;;11.85;10.65;;;18.60;99.90;;;;;;5025374;28;20216;-72
2022/10/12 11:15:22;;;;;;;11.02;9.80;;;18.50;99.90;;;;;;5030213;28;20655;-78
2022/10/12 11:17:55;;;;;;;11.55;9.95;;;18.50;99.90;;;;;;5033775;28;20660;-82
2022/10/12 11:20:33;;;;;;;14.63;10.50;;;18.60;99.90;;;;;;5034014;28;20190;-72
2022/10/12 11:23:28;;;;;;;16.67;9.63;;;18.60;99.90;;;;;;5027841;28;20194;-74
2022/10/12 11:26:25;;;;;;;14.73;10.70;;;18.70;99.90;;;;;;5014835;28;20271;-68
2022/10/12 11:28:53;;;;;;;15.50;11.32;;;18.90;99.90;;;;;;5026421;28;20214;-68
2022/10/12 11:31:29;;;;;;;14.85;10.68;;;18.70;99.90;;;;;;5027885;28;20210;-69
2022/10/12 11:33:57;;;;;;;12.57;10.18;;;18.70;99.90;;;;;;5028769;28;20190;-69
2022/10/12 11:36:26;;;;;;;12.02;9.52;;;18.80;99.90;;;;;;5030783;28;20264;-71
2022/10/12 11:38:57;;;;;;;10.90;9.82;;;18.90;99.90;;;;;;5029521;28;20676;-71
2022/10/12 11:41:32;;;;;;;14.27;10.75;;;18.90;99.90;;;;;;5025340;28;20240;-71
2022/10/12 11:44:03;;;;;;;10.95;9.82;;;18.80;99.90;;;;;;5041414;28;20208;-68
2022/10/12 11:46:37;;;;;;;10.70;9.70;;;18.70;99.90;;;;;;5025944;28;20202;-67
2022/10/12 11:49:14;;;;;;;11.73;9.73;;;18.70;99.90;;;;;;5026513;28;20548;-66
2022/10/12 11:51:45;;;;;;;12.73;9.88;;;18.50;99.90;;;;;;5024238;28;20186;-73
2022/10/12 11:54:28;;;;;;;13.80;9.75;;;18.70;99.90;;;;;;5022894;28;20287;-72
2022/10/12 11:57:00;;;;;;;12.65;11.40;;;18.80;99.90;;;;;;5023904;28;20222;-67
2022/10/12 11:59:54;;;;;;;11.30;9.57;;;18.80;99.90;;;;;;5024561;28;20558;-68
2022/10/12 12:02:39;;;;;;;10.30;9.07;;;18.90;99.90;;;;;;5027291;28;20692;-65
2022/10/12 12:05:14;;;;;;;12.60;9.43;;;18.80;99.90;;;;;;5023938;28;20244;-61
2022/10/12 12:07:50;;;;;;;10.63;9.55;;;18.80;99.90;;;;;;5027146;28;20484;-61
2022/10/12 12:10:29;;;;;;;12.68;9.50;;;18.80;99.90;;;;;;5025865;28;20204;-69
2022/10/12 12:13:23;;;;;;;13.32;8.93;;;18.70;99.90;;;;;;5023904;28;20198;-70
2022/10/12 12:15:48;;;;;;;10.30;8.27;;;18.50;99.90;;;;;;5018404;28;20300;-70
2022/10/12 12:18:32;;;;;;;12.83;9.23;;;18.90;99.90;;;;;;5025837;28;20312;-72
2022/10/12 12:21:06;;;;;;;12.70;9.23;;;18.70;99.90;;;;;;5023054;28;20205;-72
2022/10/12 12:23:38;;;;;;;12.15;8.93;;;18.80;99.90;;;;;;5025723;28;20237;-68
2022/10/12 12:26:11;;;;;;;9.93;8.30;;;18.90;99.90;;;;;;5025152;28;20640;-72
2022/10/12 12:28:48;;;;;;;8.90;8.00;;;19.20;99.90;;;;;;5023411;28;20202;-64
2022/10/12 12:31:23;;;;;;;9.38;8.13;;;19.50;99.90;;;;;;5023079;28;20182;-64
2022/10/12 12:34:00;;;;;;;12.00;8.70;;;19.20;99.90;;;;;;5021147;28;20722;-64
2022/10/12 12:36:48;;;;;;;8.55;7.60;;;19.30;99.90;;;;;;5027079;28;20198;-71
2022/10/12 12:39:29;;;;;;;9.63;8.60;;;19.30;99.90;;;;;;5026675;28;20243;-71
2022/10/12 12:42:03;;;;;;;8.68;7.88;;;19.10;99.90;;;;;;5024446;28;20193;-71
2022/10/12 12:44:41;;;;;;;10.05;7.40;;;19.00;99.90;;;;;;5022122;28;20182;-69
2022/10/12 12:47:10;;;;;;;7.97;7.18;;;18.80;99.90;;;;;;5020609;28;20210;-70